createdAt,value
2018-04-07T00:01:52.937Z,7.66
2018-04-07T01:29:18.474Z,7.19
2018-04-07T01:31:45.922Z,7.25
2018-04-07T01:34:14.341Z,7.27
2018-04-07T01:36:41.812Z,7.25
2018-04-07T01:39:09.298Z,7.24
2018-04-07T01:41:36.781Z,7.23
2018-04-07T01:44:04.241Z,7.25
2018-04-07T01:46:31.737Z,7.17
2018-04-07T01:48:59.182Z,7.22
2018-04-07T01:51:26.661Z,7.15
2018-04-07T01:53:54.113Z,7.09
2018-04-07T01:56:23.528Z,7.11
2018-04-07T01:58:52.460Z,7.10
2018-04-07T02:01:20.184Z,7.11
2018-04-07T02:03:47.641Z,7.10
2018-04-07T02:06:15.127Z,7.09
2018-04-07T02:08:42.570Z,7.12
2018-04-07T02:11:10.087Z,7.11
2018-04-07T02:13:37.529Z,7.17
2018-04-07T02:16:05.001Z,7.17
2018-04-07T02:18:32.449Z,7.13
2018-04-07T02:20:59.937Z,7.09
2018-04-07T02:23:27.407Z,7.09
2018-04-07T02:25:54.910Z,7.09
2018-04-07T02:28:22.400Z,7.15
2018-04-07T02:30:49.860Z,7.03
2018-04-07T02:33:17.371Z,7.07
2018-04-07T02:35:44.835Z,7.04
2018-04-07T02:38:12.329Z,7.07
2018-04-07T02:40:39.778Z,7.04
2018-04-07T02:43:07.258Z,7.04
2018-04-07T02:45:34.710Z,7.05
2018-04-07T02:48:03.163Z,7.08
2018-04-07T02:50:30.614Z,7.04
2018-04-07T02:52:58.100Z,6.97
2018-04-07T02:55:25.553Z,6.93
2018-04-07T02:57:53.037Z,6.88
2018-04-07T03:00:20.484Z,6.94
2018-04-07T03:02:47.961Z,6.91
2018-04-07T03:05:15.421Z,6.89
2018-04-07T03:07:42.940Z,6.92
2018-04-07T03:10:10.402Z,6.81
2018-04-07T03:12:37.881Z,6.80
2018-04-07T03:15:05.325Z,6.85
2018-04-07T03:17:32.782Z,6.77
2018-04-07T03:20:00.275Z,6.74
2018-04-07T03:22:27.738Z,6.75
2018-04-07T03:24:55.212Z,6.71
2018-04-07T03:27:22.652Z,6.58
2018-04-07T03:29:50.133Z,6.62
2018-04-07T03:32:17.573Z,6.59
2018-04-07T03:34:45.061Z,6.49
2018-04-07T03:37:12.520Z,6.49
2018-04-07T03:39:39.997Z,6.53
2018-04-07T03:42:08.424Z,6.42
2018-04-07T03:44:35.910Z,6.46
2018-04-07T03:47:03.356Z,6.46
2018-04-07T03:49:30.833Z,6.43
2018-04-07T03:51:58.296Z,6.39
2018-04-07T03:54:25.791Z,6.38
2018-04-07T03:56:53.245Z,6.28
2018-04-07T03:59:20.693Z,6.25
2018-04-07T04:01:48.165Z,6.31
2018-04-07T04:04:16.520Z,6.32
2018-04-07T04:06:44.012Z,6.31
2018-04-07T04:09:11.464Z,6.27
2018-04-07T04:11:38.945Z,6.26
2018-04-07T04:14:06.392Z,6.28
2018-04-07T04:16:33.869Z,6.24
2018-04-07T04:19:01.308Z,6.31
2018-04-07T04:21:28.810Z,6.24
2018-04-07T04:23:56.263Z,6.29
2018-04-07T04:26:23.744Z,6.28
2018-04-07T04:28:51.190Z,6.27
2018-04-07T04:31:18.661Z,6.30
2018-04-07T04:33:46.122Z,6.23
2018-04-07T04:36:14.572Z,6.23
2018-04-07T04:38:42.020Z,6.22
2018-04-07T04:41:09.500Z,6.20
2018-04-07T04:43:37.837Z,6.19
2018-04-07T04:46:05.275Z,6.16
2018-04-07T04:48:32.749Z,6.21
2018-04-07T04:51:00.197Z,6.19
2018-04-07T04:53:29.631Z,6.19
2018-04-07T04:55:58.081Z,6.23
2018-04-07T04:58:25.564Z,6.29
2018-04-07T05:00:53.003Z,6.31
2018-04-07T05:03:20.484Z,6.41
2018-04-07T05:05:47.938Z,6.42
2018-04-07T05:08:15.425Z,6.45
2018-04-07T05:10:42.873Z,6.51
2018-04-07T05:13:10.363Z,6.57
2018-04-07T05:15:37.824Z,6.52
2018-04-07T05:18:06.213Z,6.59
2018-04-07T05:20:33.666Z,6.67
2018-04-07T05:23:01.175Z,6.67
2018-04-07T05:25:29.605Z,6.63
2018-04-07T05:27:58.014Z,6.69
2018-04-07T05:30:25.472Z,6.69
2018-04-07T05:32:52.957Z,6.75
2018-04-07T05:35:20.421Z,6.70
2018-04-07T05:37:48.073Z,6.77
2018-04-07T05:40:15.533Z,6.81
2018-04-07T05:42:42.979Z,6.83
2018-04-07T05:45:11.454Z,7.03
2018-04-07T05:47:38.906Z,7.02
2018-04-07T05:50:06.393Z,7.03
2018-04-07T05:52:33.838Z,7.12
2018-04-07T05:55:01.317Z,7.06
2018-04-07T05:57:28.764Z,7.09
2018-04-07T05:59:56.258Z,7.21
2018-04-07T06:02:24.648Z,7.32
2018-04-07T06:04:52.142Z,7.20
2018-04-07T06:07:19.608Z,7.31
2018-04-07T06:09:49.024Z,7.34
2018-04-07T06:12:16.477Z,7.42
2018-04-07T06:14:43.958Z,7.44
2018-04-07T06:17:11.410Z,7.56
2018-04-07T06:19:38.889Z,7.71
2018-04-07T06:22:06.342Z,7.66
2018-04-07T06:24:33.864Z,7.66
2018-04-07T06:27:01.343Z,7.71
2018-04-07T06:29:28.827Z,7.70
2018-04-07T06:31:57.259Z,7.73
2018-04-07T06:34:24.754Z,7.80
2018-04-07T06:36:52.218Z,7.91
2018-04-07T06:39:19.719Z,8.00
2018-04-07T06:41:47.198Z,8.11
2018-04-07T06:44:14.653Z,8.08
2018-04-07T06:46:42.161Z,8.01
2018-04-07T06:49:09.638Z,8.23
2018-04-07T06:51:38.134Z,8.25
2018-04-07T06:54:06.564Z,8.26
2018-04-07T06:56:35.980Z,8.20
2018-04-07T06:59:03.462Z,8.50
2018-04-07T07:01:34.620Z,8.52
2018-04-07T07:04:05.014Z,8.44
2018-04-07T07:06:32.515Z,8.69
2018-04-07T07:09:00.028Z,8.95
2018-04-07T07:11:27.498Z,9.05
2018-04-07T07:13:54.958Z,9.00
2018-04-07T07:16:22.435Z,9.11
2018-04-07T07:18:49.888Z,9.18
2018-04-07T07:21:19.394Z,9.45
2018-04-07T07:23:47.861Z,9.66
2018-04-07T07:26:16.345Z,9.36
2018-04-07T07:28:44.802Z,9.70
2018-04-07T07:31:12.308Z,9.91
2018-04-07T07:33:39.761Z,10.03
2018-04-07T07:36:09.169Z,10.04
2018-04-07T07:38:38.731Z,10.03
2018-04-07T07:41:06.185Z,10.25
2018-04-07T07:43:34.577Z,10.18
2018-04-07T07:46:02.984Z,10.39
2018-04-07T07:48:31.442Z,10.62
2018-04-07T07:51:07.330Z,10.72
2018-04-07T07:53:49.681Z,10.91
2018-04-07T07:56:20.875Z,10.82
2018-04-07T07:58:48.377Z,11.26
2018-04-07T08:01:19.585Z,11.15
2018-04-07T08:03:47.112Z,11.20
2018-04-07T08:06:14.602Z,11.35
2018-04-07T08:08:42.097Z,11.51
2018-04-07T08:11:09.547Z,11.74
2018-04-07T08:13:37.025Z,11.99
2018-04-07T08:16:05.465Z,12.09
2018-04-07T08:18:32.948Z,11.54
2018-04-07T08:21:00.479Z,11.68
2018-04-07T08:23:27.989Z,11.59
2018-04-07T08:25:59.497Z,11.36
2018-04-07T08:28:26.994Z,11.64
2018-04-07T08:30:54.466Z,11.56
2018-04-07T08:33:22.052Z,11.81
2018-04-07T08:35:49.542Z,12.04
2018-04-07T08:38:19.011Z,12.33
2018-04-07T08:40:46.501Z,12.38
2018-04-07T08:43:13.944Z,12.08
2018-04-07T08:45:41.460Z,12.40
2018-04-07T08:48:09.870Z,12.63
2018-04-07T08:50:37.356Z,12.54
2018-04-07T08:53:04.797Z,12.27
2018-04-07T08:55:32.291Z,12.55
2018-04-07T08:57:59.754Z,12.55
2018-04-07T09:00:27.248Z,12.66
2018-04-07T09:02:54.699Z,12.54
2018-04-07T09:05:23.108Z,12.76
2018-04-07T09:07:50.559Z,12.69
2018-04-07T09:10:18.041Z,12.78
2018-04-07T09:12:45.509Z,12.85
2018-04-07T09:15:17.856Z,12.71
2018-04-07T09:17:45.545Z,12.90
2018-04-07T09:20:13.977Z,13.02
2018-04-07T09:22:42.369Z,12.93
2018-04-07T09:25:13.166Z,12.86
2018-04-07T09:27:41.622Z,13.28
2018-04-07T09:30:10.840Z,13.30
2018-04-07T09:32:38.325Z,13.16
2018-04-07T09:35:05.774Z,13.21
2018-04-07T09:37:33.238Z,13.42
2018-04-07T09:40:00.685Z,13.57
2018-04-07T09:42:28.166Z,13.73
2018-04-07T09:44:55.770Z,13.48
2018-04-07T09:47:23.253Z,13.37
2018-04-07T09:49:50.696Z,13.40
2018-04-07T09:52:18.173Z,13.51
2018-04-07T09:54:45.617Z,13.54
2018-04-07T09:57:14.075Z,13.63
2018-04-07T09:59:41.529Z,13.80
2018-04-07T10:02:09.017Z,14.18
2018-04-07T10:04:36.476Z,14.08
2018-04-07T10:07:03.943Z,14.23
2018-04-07T10:09:31.383Z,14.48
2018-04-07T10:11:58.880Z,14.71
2018-04-07T10:14:26.329Z,14.50
2018-04-07T10:16:53.771Z,14.67
2018-04-07T10:19:21.227Z,14.80
2018-04-07T10:21:49.619Z,15.14
2018-04-07T10:24:17.083Z,15.19
2018-04-07T10:26:44.523Z,15.17
2018-04-07T10:29:12.021Z,14.89
2018-04-07T10:31:40.489Z,14.99
2018-04-07T10:34:07.979Z,15.20
2018-04-07T10:36:35.510Z,15.25
2018-04-07T10:39:03.077Z,15.32
2018-04-07T10:41:30.528Z,15.47
2018-04-07T10:43:58.014Z,15.55
2018-04-07T10:46:25.470Z,15.54
2018-04-07T10:48:52.978Z,15.69
2018-04-07T10:51:20.434Z,15.63
2018-04-07T10:53:48.823Z,15.86
2018-04-07T10:56:16.281Z,15.83
2018-04-07T10:58:43.765Z,15.94
2018-04-07T11:01:11.237Z,16.06
2018-04-07T11:03:38.689Z,16.30
2018-04-07T11:06:06.191Z,16.17
2018-04-07T11:08:33.649Z,16.32
2018-04-07T11:11:01.130Z,16.12
2018-04-07T11:13:28.576Z,16.42
2018-04-07T11:15:56.073Z,16.31
2018-04-07T11:18:23.521Z,16.45
2018-04-07T11:20:50.996Z,16.53
2018-04-07T11:23:18.457Z,16.63
2018-04-07T11:25:45.941Z,16.49
2018-04-07T11:28:13.393Z,16.57
2018-04-07T11:30:40.880Z,16.47
2018-04-07T11:33:08.349Z,16.31
2018-04-07T11:35:35.890Z,16.33
2018-04-07T11:38:05.375Z,16.31
2018-04-07T11:40:32.840Z,16.47
2018-04-07T11:43:00.324Z,16.66
2018-04-07T11:45:27.788Z,16.89
2018-04-07T11:47:55.281Z,16.87
2018-04-07T11:50:22.746Z,17.03
2018-04-07T11:52:50.227Z,17.21
2018-04-07T11:55:17.686Z,17.23
2018-04-07T11:57:45.178Z,17.48
2018-04-07T12:00:13.520Z,17.41
2018-04-07T12:02:40.999Z,17.52
2018-04-07T12:05:09.361Z,17.72
2018-04-07T12:07:36.854Z,17.57
2018-04-07T12:10:04.301Z,17.59
2018-04-07T12:12:31.785Z,17.61
2018-04-07T12:14:59.239Z,17.40
2018-04-07T12:17:28.648Z,17.18
2018-04-07T12:19:57.120Z,17.48
2018-04-07T12:22:25.634Z,17.39
2018-04-07T12:24:53.090Z,17.50
2018-04-07T12:27:21.489Z,17.18
2018-04-07T12:29:49.034Z,17.55
2018-04-07T12:32:17.384Z,17.81
2018-04-07T12:34:44.874Z,17.77
2018-04-07T12:37:12.321Z,17.63
2018-04-07T12:39:39.805Z,17.77
2018-04-07T12:42:07.310Z,18.45
2018-04-07T12:44:35.726Z,18.28
2018-04-07T12:47:03.178Z,18.54
2018-04-07T12:49:30.660Z,18.28
2018-04-07T12:52:01.467Z,17.85
2018-04-07T12:54:30.960Z,17.97
2018-04-07T12:56:59.401Z,17.95
2018-04-07T12:59:26.890Z,17.96
2018-04-07T13:01:54.570Z,17.91
2018-04-07T13:04:22.071Z,18.30
2018-04-07T13:06:51.537Z,18.74
2018-04-07T13:09:19.021Z,18.94
2018-04-07T13:11:46.485Z,18.68
2018-04-07T13:14:13.977Z,18.75
2018-04-07T13:16:41.433Z,18.77
2018-04-07T13:19:10.881Z,19.18
2018-04-07T13:21:38.329Z,19.77
2018-04-07T13:24:05.815Z,20.08
2018-04-07T13:26:33.286Z,19.89
2018-04-07T13:29:00.773Z,19.83
2018-04-07T13:31:28.373Z,19.93
2018-04-07T13:33:57.781Z,20.11
2018-04-07T13:36:25.237Z,20.43
2018-04-07T13:38:52.789Z,20.62
2018-04-07T13:41:20.269Z,21.04
2018-04-07T13:43:47.725Z,21.44
2018-04-07T13:46:18.333Z,20.94
2018-04-07T13:48:47.701Z,21.43
2018-04-07T13:51:15.328Z,22.46
2018-04-07T13:53:42.809Z,22.26
2018-04-07T13:56:10.295Z,21.50
2018-04-07T13:58:37.753Z,21.57
2018-04-07T14:01:06.242Z,21.59
2018-04-07T14:03:35.636Z,21.30
2018-04-07T14:06:03.125Z,21.00
2018-04-07T14:08:30.593Z,20.81
2018-04-07T14:10:58.090Z,21.21
2018-04-07T14:13:26.471Z,20.90
2018-04-07T14:15:53.985Z,22.05
2018-04-07T14:18:21.457Z,22.72
2018-04-07T14:20:50.897Z,21.93
2018-04-07T14:23:19.297Z,21.21
2018-04-07T14:25:46.772Z,21.69
2018-04-07T14:28:14.264Z,21.27
2018-04-07T14:30:41.722Z,21.14
2018-04-07T14:33:10.145Z,21.36
2018-04-07T14:35:38.518Z,22.16
2018-04-07T14:38:07.105Z,21.60
2018-04-07T14:40:34.562Z,21.85
2018-04-07T14:45:52.370Z,21.87
2018-04-07T14:48:19.864Z,21.76
2018-04-07T14:50:47.316Z,22.38
2018-04-07T14:53:14.793Z,22.71
2018-04-07T14:55:43.145Z,22.75
2018-04-07T14:58:10.879Z,23.95
2018-04-07T15:00:38.333Z,23.25
2018-04-07T15:03:05.827Z,23.44
2018-04-07T15:05:33.284Z,25.43
2018-04-07T15:08:01.783Z,24.43
2018-04-07T15:10:29.226Z,24.55
2018-04-07T15:12:56.791Z,24.79
2018-04-07T15:15:24.243Z,24.88
2018-04-07T15:17:51.675Z,25.61
2018-04-07T15:20:20.081Z,25.83
2018-04-07T15:22:47.537Z,25.54
2018-04-07T15:25:15.026Z,24.75
2018-04-07T15:27:42.487Z,23.44
2018-04-07T15:30:10.019Z,22.97
2018-04-07T15:32:37.493Z,22.87
2018-04-07T15:35:04.978Z,23.54
2018-04-07T15:37:32.441Z,23.14
2018-04-07T15:40:00.860Z,21.67
2018-04-07T15:42:29.322Z,21.02
2018-04-07T15:44:56.913Z,20.84
2018-04-07T15:47:24.359Z,21.26
2018-04-07T15:49:51.865Z,21.73
2018-04-07T15:52:19.325Z,21.66
2018-04-07T15:54:46.836Z,22.10
2018-04-07T15:57:14.344Z,21.97
2018-04-07T15:59:41.817Z,22.62
2018-04-07T16:02:11.229Z,22.77
2018-04-07T16:04:38.684Z,21.98
2018-04-07T16:07:07.093Z,20.86
2018-04-07T16:09:34.540Z,20.74
2018-04-07T16:12:02.030Z,20.88
2018-04-07T16:14:30.396Z,21.13
2018-04-07T16:16:57.905Z,21.73
2018-04-07T16:19:25.397Z,22.24
2018-04-07T16:21:52.873Z,21.51
2018-04-07T16:24:20.337Z,22.15
2018-04-07T16:26:47.832Z,21.69
2018-04-07T16:29:15.322Z,20.98
2018-04-07T16:31:43.866Z,21.31
2018-04-07T16:34:12.292Z,21.05
2018-04-07T16:36:39.845Z,20.51
2018-04-07T16:39:08.229Z,20.57
2018-04-07T16:41:36.728Z,21.85
2018-04-07T16:44:08.953Z,21.96
2018-04-07T16:46:36.465Z,22.15
2018-04-07T16:49:04.549Z,21.36
2018-04-07T16:51:33.018Z,20.10
2018-04-07T16:54:04.006Z,19.80
2018-04-07T16:56:31.506Z,19.47
2018-04-07T16:58:58.973Z,19.38
2018-04-07T17:01:32.583Z,19.54
2018-04-07T17:04:00.071Z,19.29
2018-04-07T17:06:28.477Z,19.06
2018-04-07T17:08:56.885Z,18.94
2018-04-07T17:11:25.277Z,18.72
2018-04-07T17:13:52.769Z,18.50
2018-04-07T17:16:20.232Z,18.44
2018-04-07T17:18:47.724Z,18.34
2018-04-07T17:21:15.230Z,18.19
2018-04-07T17:23:42.741Z,17.98
2018-04-07T17:26:10.234Z,17.94
2018-04-07T17:28:37.754Z,18.02
2018-04-07T17:31:05.209Z,18.07
2018-04-07T17:33:32.707Z,17.89
2018-04-07T17:36:00.201Z,17.86
2018-04-07T17:38:27.758Z,17.73
2018-04-07T17:40:55.208Z,17.57
2018-04-07T17:43:22.722Z,17.33
2018-04-07T17:45:50.177Z,17.16
2018-04-07T17:48:17.654Z,16.90
2018-04-07T17:50:45.173Z,16.78
2018-04-07T17:53:12.650Z,16.68
2018-04-07T17:55:40.133Z,16.46
2018-04-07T17:58:07.712Z,16.33
2018-04-07T18:00:35.201Z,16.15
2018-04-07T18:03:03.555Z,15.95
2018-04-07T18:05:31.049Z,15.68
2018-04-07T18:07:59.464Z,15.57
2018-04-07T18:10:26.949Z,15.45
2018-04-07T18:12:55.397Z,15.31
2018-04-07T18:15:22.933Z,15.17
2018-04-07T18:17:50.418Z,15.01
2018-04-07T18:20:17.910Z,14.91
2018-04-07T18:22:45.459Z,14.78
2018-04-07T18:25:13.973Z,14.78
2018-04-07T18:27:41.437Z,14.86
2018-04-07T18:30:09.910Z,14.82
2018-04-07T18:32:37.364Z,14.69
2018-04-07T18:35:04.844Z,14.68
2018-04-07T18:37:32.356Z,14.79
2018-04-07T18:39:59.866Z,14.74
2018-04-07T18:42:27.365Z,14.61
2018-04-07T18:44:54.829Z,14.64
2018-04-07T18:47:23.280Z,14.65
2018-04-07T18:49:50.746Z,14.70
2018-04-07T18:52:19.205Z,14.65
2018-04-07T18:54:46.671Z,14.49
2018-04-07T18:57:15.861Z,14.39
2018-04-07T18:59:43.324Z,14.35
2018-04-07T19:02:11.754Z,14.27
2018-04-07T19:04:40.157Z,14.29
2018-04-07T19:07:07.645Z,14.30
2018-04-07T19:09:35.118Z,14.28
2018-04-07T19:12:02.613Z,14.25
2018-04-07T19:14:30.082Z,14.12
2018-04-07T19:16:57.568Z,14.04
2018-04-07T19:19:25.021Z,13.95
2018-04-07T19:21:52.533Z,13.90
2018-04-07T19:24:20.001Z,13.86
2018-04-07T19:26:47.457Z,13.88
2018-04-07T19:29:14.940Z,13.86
2018-04-07T19:31:42.404Z,13.89
2018-04-07T19:34:09.897Z,13.80
2018-04-07T19:36:37.379Z,13.70
2018-04-07T19:39:04.873Z,13.60
2018-04-07T19:41:33.278Z,13.61
2018-04-07T19:44:00.760Z,13.62
2018-04-07T19:46:28.234Z,13.64
2018-04-07T19:48:55.870Z,13.61
2018-04-07T19:51:23.370Z,13.64
2018-04-07T19:53:50.855Z,13.67
2018-04-07T19:56:18.353Z,13.63
2018-04-07T19:58:45.832Z,13.63
2018-04-07T20:01:13.402Z,13.58
2018-04-07T20:03:40.893Z,13.65
2018-04-07T20:06:08.361Z,13.73
2018-04-07T20:08:35.859Z,13.79
2018-04-07T20:11:03.322Z,13.81
2018-04-07T20:13:30.886Z,13.81
2018-04-07T20:15:58.381Z,13.86
2018-04-07T20:18:25.832Z,13.76
2018-04-07T20:20:53.308Z,13.80
2018-04-07T20:23:20.760Z,13.88
2018-04-07T20:25:48.256Z,13.95
2018-04-07T20:28:15.713Z,13.83
2018-04-07T20:30:45.125Z,13.84
2018-04-07T20:33:13.596Z,13.81
2018-04-07T20:35:43.020Z,13.79
2018-04-07T20:38:10.491Z,13.78
2018-04-07T20:40:37.983Z,13.72
2018-04-07T20:43:13.442Z,13.63
2018-04-07T20:45:40.974Z,13.56
2018-04-07T20:48:08.438Z,13.56
2018-04-07T20:50:35.983Z,13.47
2018-04-07T20:53:03.466Z,13.46
2018-04-07T20:55:30.961Z,13.47
2018-04-07T20:57:59.456Z,13.48
2018-04-07T21:00:27.026Z,13.62
2018-04-07T21:02:54.537Z,13.57
2018-04-07T21:05:22.025Z,13.48
2018-04-07T21:07:49.504Z,13.46
2018-04-07T21:10:17.080Z,13.46
2018-04-07T21:12:44.576Z,13.46
2018-04-07T21:15:12.038Z,13.51
2018-04-07T21:17:39.539Z,13.37
2018-04-07T21:20:07.044Z,13.43
2018-04-07T21:22:34.642Z,13.39
2018-04-07T21:25:02.096Z,13.34
2018-04-07T21:27:29.650Z,13.32
2018-04-07T21:29:57.135Z,13.35
2018-04-07T21:32:24.641Z,13.25
2018-04-07T21:34:52.097Z,13.20
2018-04-07T21:37:19.594Z,13.20
2018-04-07T21:39:47.058Z,13.27
2018-04-07T21:42:15.518Z,13.15
2018-04-07T21:44:43.178Z,13.11
2018-04-07T21:47:10.807Z,13.08
2018-04-07T21:49:38.296Z,13.07
2018-04-07T21:52:05.809Z,13.10
2018-04-07T21:54:33.300Z,13.08
2018-04-07T21:57:00.761Z,13.08
2018-04-07T21:59:28.248Z,13.08
2018-04-07T22:01:55.721Z,13.17
2018-04-07T22:04:23.233Z,13.22
2018-04-07T22:06:50.718Z,13.25
2018-04-07T22:09:18.210Z,13.23
2018-04-07T22:11:45.679Z,13.18
2018-04-07T22:14:14.181Z,13.07
2018-04-07T22:16:41.658Z,12.93
2018-04-07T22:19:09.146Z,12.91
2018-04-07T22:21:36.602Z,12.88
2018-04-07T22:24:04.053Z,12.77
2018-04-07T22:26:31.550Z,12.82
2018-04-07T22:28:59.113Z,12.67
2018-04-07T22:31:27.606Z,12.73
2018-04-07T22:33:56.041Z,12.66
2018-04-07T22:36:23.521Z,12.64
2018-04-07T22:38:51.973Z,12.69
2018-04-07T22:41:19.458Z,12.75
2018-04-07T22:43:47.026Z,12.74
2018-04-07T22:46:14.514Z,12.75
2018-04-07T22:48:41.968Z,12.67
2018-04-07T22:51:10.594Z,12.67
2018-04-07T22:53:38.060Z,12.64
2018-04-07T22:56:05.546Z,12.61
2018-04-07T22:58:32.993Z,12.58
2018-04-07T23:01:00.790Z,12.59
2018-04-07T23:03:28.245Z,12.66
2018-04-07T23:05:55.701Z,12.75
2018-04-07T23:08:23.296Z,12.74
2018-04-07T23:10:50.749Z,12.68
2018-04-07T23:13:18.241Z,12.55
2018-04-07T23:15:46.678Z,12.52
2018-04-07T23:18:14.170Z,12.57
2018-04-07T23:20:42.609Z,12.46
2018-04-07T23:23:12.085Z,12.48
2018-04-07T23:25:39.537Z,12.53
2018-04-07T23:28:07.937Z,12.49
2018-04-07T23:30:35.393Z,12.44
2018-04-07T23:33:03.813Z,12.49
2018-04-07T23:35:31.269Z,12.53
2018-04-07T23:37:58.757Z,12.58
2018-04-07T23:40:26.213Z,12.51
2018-04-07T23:42:53.722Z,12.54
2018-04-07T23:45:21.181Z,12.47
2018-04-07T23:47:48.673Z,12.35
2018-04-07T23:50:16.132Z,12.39
2018-04-07T23:52:43.632Z,12.32
2018-04-07T23:55:11.087Z,12.23
2018-04-07T23:57:38.599Z,12.20
